Montbello, Colorado
Current Conditions -  °F | °C
As of 6:58 AM on Saturday 25 Oct 2014 (Local Time) from KBKF Reporting Station
Few Clouds Few Clouds  
Wind Chill: 44°   Ceiling: Unl
Heat Index: 48°   Visibility: 10mi
Dew Point: 22°   Wind: 9mph
Humidity: 35%   Direction: 180°S
Pressure: 30.25"   Gusts: NA
Location:  39.7897°N, 104.858°W
Report Text: KBKF 251258Z 18008KT 10SM FEW220 09/M06 A3025 RMK AO2A SLP196 T00911056
Loading
Personal Weather Stations






























Interactive Weather Map
Tropical Storm Tracking
New forecast layout! Learn more

10-Day Weather Forecast

Advertisements
Track Severe Weather on mobile